Time;durP1;ratioP1;P1;durP2;ratioP2;P2;SDS_P1;SDS_P2;PMS_P1;PMS_P2;Temp;Humidity;BMP_temperature;BMP_pressure;BME280_temperature;BME280_humidity;BME280_pressure;Samples;Min_cycle;Max_cycle;Signal;HPM_P1;HPM_P2
2023/03/23 00:01:03;;;;;;;15.95;5.20;;;;;;;11.18;100.00;100034.63;5082763;28;20025;-51
2023/03/23 00:03:31;;;;;;;16.52;4.53;;;;;;;11.16;100.00;100034.84;5069907;28;20441;-51
2023/03/23 00:06:04;;;;;;;19.80;4.72;;;;;;;11.19;100.00;100037.13;5069974;28;20059;-51
2023/03/23 00:08:29;;;;;;;14.10;4.15;;;;;;;11.22;100.00;100046.66;5064014;28;20115;-50
2023/03/23 00:10:57;;;;;;;9.43;4.07;;;;;;;11.18;100.00;100035.47;5088247;28;20028;-50
2023/03/23 00:13:24;;;;;;;9.80;4.38;;;;;;;11.14;100.00;100039.63;5084095;28;20029;-49
2023/03/23 00:15:51;;;;;;;14.77;4.72;;;;;;;11.14;100.00;100039.63;5069513;28;20141;-50
2023/03/23 00:18:23;;;;;;;11.43;4.70;;;;;;;11.14;100.00;100023.47;5080202;28;20024;-50
2023/03/23 00:20:53;;;;;;;12.52;4.47;;;;;;;11.12;100.00;100022.81;5089397;28;20036;-49
2023/03/23 00:23:20;;;;;;;16.58;4.57;;;;;;;11.12;100.00;100019.31;5089521;28;20028;-49
2023/03/23 00:25:58;;;;;;;10.33;4.20;;;;;;;11.13;100.00;100011.00;5093278;28;20031;-50
2023/03/23 00:28:26;;;;;;;17.42;4.43;;;;;;;11.09;100.00;99996.31;5086935;28;20335;-52
2023/03/23 00:31:03;;;;;;;14.98;4.72;;;;;;;11.09;100.00;99996.31;5072799;28;20111;-49
2023/03/23 00:33:30;;;;;;;13.68;4.53;;;;;;;11.07;100.00;100009.16;5073151;28;20447;-48
2023/03/23 00:35:56;;;;;;;12.38;4.25;;;;;;;11.08;100.00;99996.50;5076488;28;20036;-49
2023/03/23 00:38:23;;;;;;;13.98;4.15;;;;;;;11.08;100.00;99991.94;5077631;28;20044;-50
2023/03/23 00:40:49;;;;;;;27.95;4.20;;;;;;;11.04;100.00;99990.72;5074041;28;20032;-50
2023/03/23 00:43:16;;;;;;;14.25;3.72;;;;;;;11.04;100.00;99989.88;5073232;28;20021;-50
2023/03/23 00:45:41;;;;;;;20.37;4.00;;;;;;;11.07;100.00;99987.59;5073334;28;20037;-50
2023/03/23 00:48:07;;;;;;;12.38;4.78;;;;;;;11.09;100.00;100009.78;5081738;28;20124;-50
2023/03/23 00:50:32;;;;;;;12.52;3.80;;;;;;;11.08;100.00;99985.72;5093364;28;20123;-50
2023/03/23 00:52:58;;;;;;;12.20;3.70;;;;;;;11.07;100.00;100000.25;5075271;28;20056;-51
2023/03/23 00:55:25;;;;;;;7.93;3.55;;;;;;;11.08;100.00;99997.34;5073240;28;20033;-50
2023/03/23 00:57:51;;;;;;;14.52;4.25;;;;;;;11.08;100.00;99997.34;5072948;28;20065;-50
2023/03/23 01:00:18;;;;;;;17.10;4.35;;;;;;;11.05;100.00;100003.13;5074433;28;20180;-49
2023/03/23 01:02:44;;;;;;;22.65;4.15;;;;;;;11.07;100.00;99993.00;5091324;28;20586;-50
2023/03/23 01:05:10;;;;;;;11.80;3.50;;;;;;;11.07;100.00;99973.31;5076685;28;20035;-50
2023/03/23 01:07:35;;;;;;;11.10;3.53;;;;;;;11.06;100.00;99985.97;5076809;28;20032;-50
2023/03/23 01:10:02;;;;;;;14.55;3.60;;;;;;;11.07;100.00;99976.00;5081805;28;20473;-50
2023/03/23 01:12:27;;;;;;;15.75;3.67;;;;;;;11.05;100.00;99981.59;5072912;28;20032;-48
2023/03/23 01:14:53;;;;;;;17.25;4.22;;;;;;;11.04;100.00;99979.13;5071981;28;20085;-51
2023/03/23 01:17:19;;;;;;;9.02;3.70;;;;;;;11.06;100.00;99969.81;5073205;28;20028;-49
2023/03/23 01:19:45;;;;;;;12.93;4.05;;;;;;;11.03;100.00;99961.28;5072759;28;20511;-49
2023/03/23 01:22:10;;;;;;;12.55;3.78;;;;;;;11.02;100.00;99959.66;5085036;28;20020;-53
2023/03/23 01:24:35;;;;;;;10.02;3.78;;;;;;;10.98;100.00;99949.28;5090779;28;20127;-49
2023/03/23 01:27:06;;;;;;;10.13;3.75;;;;;;;10.96;100.00;99955.91;5092672;28;20032;-49
2023/03/23 01:29:34;;;;;;;11.27;3.83;;;;;;;10.96;100.00;99950.53;5090213;28;20386;-49
2023/03/23 01:31:59;;;;;;;13.85;4.35;;;;;;;10.94;100.00;99950.72;5092180;28;20070;-50
2023/03/23 01:34:25;;;;;;;12.68;3.80;;;;;;;10.96;100.00;99972.91;5081980;28;20135;-49
2023/03/23 01:36:50;;;;;;;14.65;4.28;;;;;;;10.99;100.00;99982.44;5082376;28;20020;-53
2023/03/23 01:39:16;;;;;;;13.13;3.75;;;;;;;10.97;100.00;99957.56;5091955;28;20052;-49
2023/03/23 01:41:41;;;;;;;12.95;4.93;;;;;;;10.96;100.00;99945.97;5086040;28;20031;-49
2023/03/23 01:44:17;;;;;;;13.75;4.63;;;;;;;10.96;100.00;99950.53;5072139;28;20450;-50
2023/03/23 01:46:43;;;;;;;13.50;3.63;;;;;;;10.95;100.00;99930.00;5072327;28;20116;-50
2023/03/23 01:49:15;;;;;;;9.40;4.07;;;;;;;10.96;100.00;99934.38;5088585;28;20401;-50
2023/03/23 01:51:49;;;;;;;14.20;3.92;;;;;;;10.94;100.00;99936.44;5083469;28;20025;-50
2023/03/23 01:54:19;;;;;;;12.88;3.80;;;;;;;10.91;100.00;99935.00;5054130;28;20060;-50
2023/03/23 01:56:52;;;;;;;19.60;3.75;;;;;;;10.93;100.00;99942.88;5071886;28;20139;-52
2023/03/23 01:59:19;;;;;;;16.38;3.72;;;;;;;10.90;100.00;99938.72;5068769;28;20040;-50
2023/03/23 02:01:46;;;;;;;13.85;4.00;;;;;;;10.90;100.00;99951.34;5072239;28;20031;-50
2023/03/23 02:04:16;;;;;;;12.95;3.90;;;;;;;10.91;100.00;99937.69;5083889;28;20428;-52
2023/03/23 02:06:42;;;;;;;8.93;3.50;;;;;;;10.93;100.00;99951.78;5053588;28;20081;-49
2023/03/23 02:09:08;;;;;;;11.63;3.22;;;;;;;10.91;100.00;99937.69;5069523;28;20071;-50
2023/03/23 02:11:33;;;;;;;9.20;3.75;;;;;;;10.92;100.00;99949.28;5068524;28;20024;-51
2023/03/23 02:13:59;;;;;;;6.25;3.25;;;;;;;10.93;100.00;99940.19;5080084;28;20047;-50
2023/03/23 02:16:34;;;;;;;11.23;4.47;;;;;;;10.93;100.00;99945.56;5073340;28;20036;-52
2023/03/23 02:19:27;;;;;;;13.80;3.60;;;;;;;10.95;100.00;99938.94;5091264;28;20032;-49
2023/03/23 02:22:37;;;;;;;6.97;3.22;;;;;;;10.96;100.00;99939.75;5085459;28;20061;-50
2023/03/23 02:25:15;;;;;;;15.10;4.05;;;;;;;10.98;100.00;99948.47;5039896;28;20040;-52
2023/03/23 02:27:41;;;;;;;10.02;3.40;;;;;;;11.01;100.00;99945.34;5075587;28;20042;-49
2023/03/23 02:30:55;;;;;;;22.63;3.78;;;;;;;11.01;100.00;99936.47;5088410;28;20031;-51
2023/03/23 02:33:33;;;;;;;18.30;3.47;;;;;;;11.06;100.00;99937.50;5024500;28;20053;-50
2023/03/23 02:36:04;;;;;;;11.07;3.13;;;;;;;11.09;100.00;99942.47;5053628;28;20044;-49
2023/03/23 02:38:37;;;;;;;23.33;3.78;;;;;;;11.08;100.00;99932.69;5071941;28;20093;-51
2023/03/23 02:41:03;;;;;;;20.58;3.90;;;;;;;11.05;100.00;99943.88;5052888;28;20048;-50
2023/03/23 02:43:33;;;;;;;19.75;4.25;;;;;;;11.04;100.00;99941.44;5065459;28;20071;-48
2023/03/23 02:45:59;;;;;;;20.83;4.00;;;;;;;10.97;100.00;99950.31;5054466;28;20578;-50
2023/03/23 02:48:29;;;;;;;18.33;3.55;;;;;;;10.90;100.00;99943.25;5070895;28;20124;-51
2023/03/23 02:50:54;;;;;;;17.25;4.13;;;;;;;10.83;100.00;99940.56;5052817;28;20090;-50
2023/03/23 02:53:23;;;;;;;15.30;3.45;;;;;;;10.83;100.00;99950.53;5052242;28;20020;-50
2023/03/23 02:55:52;;;;;;;17.35;4.55;;;;;;;10.85;100.00;99937.66;5052430;28;20060;-49
2023/03/23 02:58:18;;;;;;;16.67;3.55;;;;;;;10.87;100.00;99941.81;5054624;28;20063;-50
2023/03/23 03:00:44;;;;;;;18.02;3.75;;;;;;;10.89;100.00;99939.75;5076191;28;20467;-50
2023/03/23 03:03:15;;;;;;;15.45;3.83;;;;;;;10.88;100.00;99959.63;5085998;28;20470;-49
2023/03/23 03:05:59;;;;;;;15.15;3.55;;;;;;;10.78;100.00;99959.22;5069809;28;20444;-49
2023/03/23 03:08:47;;;;;;;17.70;3.55;;;;;;;10.66;100.00;99972.41;5083788;28;20454;-48
2023/03/23 03:11:17;;;;;;;11.88;4.00;;;;;;;10.58;100.00;99964.53;5070661;28;20426;-46
2023/03/23 03:13:59;;;;;;;13.52;3.83;;;;;;;10.53;100.00;99972.38;5062548;28;20028;-47
2023/03/23 03:16:35;;;;;;;18.75;3.80;;;;;;;10.52;100.00;99970.75;5089791;28;20142;-46
2023/03/23 03:19:06;;;;;;;12.43;3.60;;;;;;;10.52;100.00;99976.13;5072356;28;20075;-48
2023/03/23 03:21:36;;;;;;;12.07;3.83;;;;;;;10.46;100.00;99987.69;5070495;28;20028;-53
2023/03/23 03:24:03;;;;;;;20.92;3.47;;;;;;;10.45;100.00;99986.03;5081128;28;20119;-49
2023/03/23 03:26:34;;;;;;;15.85;3.72;;;;;;;10.38;100.00;99964.50;5051979;28;20040;-46
2023/03/23 03:28:59;;;;;;;18.30;3.97;;;;;;;10.33;100.00;99967.78;5070147;28;20502;-49
2023/03/23 03:31:31;;;;;;;20.98;4.50;;;;;;;10.34;100.00;99984.75;5053076;28;20029;-50
2023/03/23 03:33:57;;;;;;;18.63;4.43;;;;;;;10.31;100.00;99977.09;5050575;28;20045;-53
2023/03/23 03:36:28;;;;;;;17.70;3.80;;;;;;;10.25;100.00;99986.75;5052482;28;20331;-56
2023/03/23 03:38:53;;;;;;;15.13;3.92;;;;;;;10.20;100.00;99997.28;5052215;28;20028;-50
2023/03/23 03:41:19;;;;;;;20.80;4.30;;;;;;;10.16;100.00;99992.50;5069740;28;20032;-51
2023/03/23 03:43:45;;;;;;;19.63;4.00;;;;;;;10.14;100.00;99987.34;5081208;28;20028;-48
2023/03/23 03:46:10;;;;;;;18.20;4.18;;;;;;;10.10;100.00;99997.66;5089825;28;20028;-49
2023/03/23 03:48:35;;;;;;;18.85;4.97;;;;;;;10.08;100.00;100001.56;5088546;28;20028;-50
2023/03/23 03:51:01;;;;;;;12.85;4.15;;;;;;;10.04;100.00;100003.00;5081010;28;20031;-49
2023/03/23 03:53:27;;;;;;;14.48;4.10;;;;;;;10.05;100.00;100002.78;5086016;28;20531;-51
2023/03/23 03:55:55;;;;;;;18.85;4.53;;;;;;;9.99;100.00;100002.78;5081927;28;20530;-54
2023/03/23 03:58:20;;;;;;;;;;;;;;;9.92;100.00;100029.59;5070216;28;20025;-54
2023/03/23 04:00:47;;;;;;;24.48;5.40;;;;;;;9.86;100.00;100030.41;5070074;28;20401;-54
2023/03/23 04:03:13;;;;;;;29.40;4.80;;;;;;;9.82;100.00;100019.22;5070966;28;20090;-51
2023/03/23 04:05:39;;;;;;;31.50;4.68;;;;;;;9.85;100.00;100040.31;5080908;28;20113;-48
2023/03/23 04:08:04;;;;;;;26.95;5.13;;;;;;;9.89;100.00;100028.13;5075779;28;20342;-49
2023/03/23 04:10:30;;;;;;;34.50;4.60;;;;;;;9.96;100.00;100022.00;5083492;28;20100;-48
2023/03/23 04:12:56;;;;;;;24.70;4.13;;;;;;;10.01;100.00;100035.66;5082176;28;20032;-48
2023/03/23 04:15:22;;;;;;;29.20;4.45;;;;;;;10.07;100.00;100033.00;5077074;28;20024;-47
2023/03/23 04:17:47;;;;;;;29.42;4.78;;;;;;;10.08;100.00;100026.63;5072905;28;20684;-50
2023/03/23 04:20:19;;;;;;;23.23;3.65;;;;;;;10.12;100.00;100016.28;5083654;28;20104;-47
2023/03/23 04:22:48;;;;;;;28.85;4.32;;;;;;;10.13;100.00;100017.09;5077703;28;20498;-51
2023/03/23 04:25:14;;;;;;;31.52;3.85;;;;;;;10.15;100.00;100018.56;5084121;28;20035;-47
2023/03/23 04:27:43;;;;;;;19.88;3.05;;;;;;;10.16;100.00;100009.47;5086353;28;20036;-50
2023/03/23 04:30:09;;;;;;;34.55;3.83;;;;;;;10.21;100.00;100022.31;5069313;28;20024;-48
2023/03/23 04:32:35;;;;;;;29.20;3.20;;;;;;;10.23;100.00;100015.72;5078487;28;20024;-48
2023/03/23 04:35:01;;;;;;;39.03;3.60;;;;;;;10.25;100.00;100007.44;5085102;28;20537;-50
2023/03/23 04:37:28;;;;;;;31.98;3.15;;;;;;;10.26;100.00;100025.25;5048552;28;20478;-50
2023/03/23 04:40:07;;;;;;;27.50;3.08;;;;;;;10.29;100.00;100006.91;5067420;28;20056;-49
2023/03/23 04:42:32;;;;;;;28.88;3.92;;;;;;;10.26;100.00;100015.31;5067680;28;20098;-51
2023/03/23 04:44:59;;;;;;;36.05;3.70;;;;;;;10.29;100.00;100020.34;5078969;28;20044;-48
2023/03/23 04:47:29;;;;;;;37.60;4.47;;;;;;;10.31;100.00;100018.25;5068467;28;20060;-50
2023/03/23 04:49:56;;;;;;;36.13;5.00;;;;;;;10.29;100.00;99997.97;5067590;28;20036;-51
2023/03/23 04:52:21;;;;;;;38.53;3.67;;;;;;;10.37;100.00;100029.25;5071182;28;20024;-51
2023/03/23 04:54:47;;;;;;;37.05;5.65;;;;;;;10.37;100.00;100013.94;5077031;28;20024;-49
2023/03/23 04:57:13;;;;;;;36.75;3.83;;;;;;;10.32;100.00;100014.56;5085832;28;20059;-50
2023/03/23 04:59:38;;;;;;;35.80;5.07;;;;;;;10.26;100.00;100004.53;5077734;28;20365;-49
2023/03/23 05:02:04;;;;;;;31.88;4.10;;;;;;;10.24;100.00;100014.69;5050368;28;20024;-49
2023/03/23 05:04:29;;;;;;;51.55;5.10;;;;;;;10.16;100.00;100030.16;5048729;28;20144;-50
2023/03/23 05:06:54;;;;;;;34.22;5.22;;;;;;;10.07;100.00;100038.38;5054548;28;20494;-51
2023/03/23 05:09:20;;;;;;;40.47;4.55;;;;;;;9.99;100.00;100035.84;5076644;28;20063;-46
2023/03/23 05:11:46;;;;;;;42.78;5.07;;;;;;;9.92;100.00;100044.91;5086256;28;20035;-50
2023/03/23 05:14:11;;;;;;;39.90;5.32;;;;;;;9.88;100.00;100047.16;5081836;28;20059;-50
2023/03/23 05:16:37;;;;;;;36.17;4.82;;;;;;;9.88;100.00;100056.06;5071915;28;20463;-49
2023/03/23 05:19:04;;;;;;;47.28;5.45;;;;;;;9.86;100.00;100063.47;5084053;28;20036;-50
2023/03/23 05:21:30;;;;;;;38.40;5.40;;;;;;;9.86;100.00;100062.66;5073067;28;20537;-48
2023/03/23 05:23:56;;;;;;;47.00;5.05;;;;;;;9.88;100.00;100056.06;5082785;28;20033;-48
2023/03/23 05:26:28;;;;;;;46.25;5.07;;;;;;;9.87;100.00;100065.16;5072479;28;20036;-48
2023/03/23 05:28:54;;;;;;;37.50;4.28;;;;;;;9.87;100.00;100070.53;5071988;28;20036;-49
2023/03/23 05:31:20;;;;;;;40.67;5.20;;;;;;;9.86;100.00;100073.41;5072523;28;20478;-48
2023/03/23 05:33:45;;;;;;;50.25;5.13;;;;;;;9.87;100.00;100067.00;5071666;28;20036;-49
2023/03/23 05:36:13;;;;;;;42.20;6.00;;;;;;;9.89;100.00;100068.44;5073132;28;20033;-49
2023/03/23 05:38:41;;;;;;;50.88;4.85;;;;;;;9.91;100.00;100070.97;5071623;28;20143;-49
2023/03/23 05:41:07;;;;;;;46.40;5.22;;;;;;;9.98;100.00;100081.75;5079114;28;20044;-48
2023/03/23 05:43:33;;;;;;;66.22;5.13;;;;;;;9.99;100.00;100072.66;5090703;28;20101;-49
2023/03/23 05:45:58;;;;;;;45.60;5.05;;;;;;;10.04;100.00;100059.47;5082835;28;20044;-48
2023/03/23 05:48:24;;;;;;;52.78;4.75;;;;;;;10.04;100.00;100071.03;5074437;28;20115;-49
2023/03/23 05:50:49;;;;;;;52.92;4.93;;;;;;;10.03;100.00;100076.59;5081845;28;20119;-48
2023/03/23 05:53:15;;;;;;;40.78;4.80;;;;;;;10.01;100.00;100086.75;5073134;28;20389;-49
2023/03/23 05:55:41;;;;;;;68.18;6.72;;;;;;;10.01;100.00;100076.00;5073146;28;20044;-49
2023/03/23 05:58:06;;;;;;;53.38;5.82;;;;;;;10.03;100.00;100073.91;5057227;28;20113;-49
2023/03/23 06:00:32;;;;;;;47.70;4.80;;;;;;;10.03;100.00;100076.59;5074364;28;20105;-51
2023/03/23 06:02:58;;;;;;;45.78;5.32;;;;;;;10.00;100.00;100074.31;5071736;28;20386;-50
2023/03/23 06:05:25;;;;;;;44.95;4.93;;;;;;;9.97;100.00;100075.53;5071893;28;20021;-49
2023/03/23 06:07:51;;;;;;;73.13;5.95;;;;;;;9.98;100.00;100087.13;5073690;28;20270;-50
2023/03/23 06:10:17;;;;;;;51.30;5.40;;;;;;;9.96;100.00;100089.19;5053502;28;20028;-49
2023/03/23 06:12:42;;;;;;;52.08;6.03;;;;;;;9.94;100.00;100085.88;5071457;28;20027;-50
2023/03/23 06:15:09;;;;;;;49.35;4.60;;;;;;;9.94;100.00;100093.94;5071514;28;20028;-48
2023/03/23 06:17:36;;;;;;;49.05;4.90;;;;;;;9.94;100.00;100150.38;5075743;28;20532;-49
2023/03/23 06:20:04;;;;;;;65.18;6.57;;;;;;;9.97;100.00;100101.59;5071476;28;20060;-47
2023/03/23 06:22:29;;;;;;;50.35;5.57;;;;;;;9.96;100.00;100105.31;5070853;28;20406;-49
2023/03/23 06:24:56;;;;;;;42.50;5.57;;;;;;;9.97;100.00;100113.16;5057475;28;20031;-49
2023/03/23 06:27:23;;;;;;;52.97;5.47;;;;;;;9.98;100.00;100108.63;5081207;28;20028;-50
2023/03/23 06:29:48;;;;;;;53.00;6.32;;;;;;;9.98;100.00;100097.88;5075250;28;20044;-52
2023/03/23 06:32:14;;;;;;;52.47;4.97;;;;;;;9.97;100.00;100096.22;5086266;28;20048;-49
2023/03/23 06:34:43;;;;;;;45.88;4.78;;;;;;;9.99;100.00;100099.53;5052357;28;20066;-51
2023/03/23 06:37:10;;;;;;;37.30;4.45;;;;;;;10.00;100.00;100106.56;5080256;28;20161;-50
2023/03/23 06:39:37;;;;;;;65.73;6.03;;;;;;;10.01;100.00;100108.25;5081083;28;20187;-49
2023/03/23 06:42:02;;;;;;;41.27;6.00;;;;;;;10.02;100.00;100115.28;5090557;28;20126;-49
2023/03/23 06:44:28;;;;;;;36.47;3.72;;;;;;;10.03;100.00;100111.56;5080904;28;20153;-50
2023/03/23 06:46:53;;;;;;;41.80;4.30;;;;;;;9.99;100.00;100110.28;5081213;28;20475;-48
2023/03/23 06:49:19;;;;;;;38.42;4.78;;;;;;;9.99;100.00;100096.84;5091154;28;20077;-50
2023/03/23 06:51:45;;;;;;;43.35;4.45;;;;;;;10.02;100.00;100107.22;5055935;28;20501;-50
2023/03/23 06:54:10;;;;;;;41.28;4.47;;;;;;;10.03;100.00;100106.19;5073101;28;20029;-51
2023/03/23 06:56:35;;;;;;;45.55;3.90;;;;;;;10.04;100.00;100094.41;5077720;28;20059;-50
2023/03/23 06:59:01;;;;;;;47.60;4.28;;;;;;;10.05;100.00;100088.81;5087173;28;20473;-51
2023/03/23 07:01:28;;;;;;;39.33;4.00;;;;;;;10.02;100.00;100116.09;5076544;28;20475;-50
2023/03/23 07:03:54;;;;;;;44.63;4.07;;;;;;;10.04;100.00;100110.53;5078159;28;20116;-50
2023/03/23 07:06:20;;;;;;;39.78;4.13;;;;;;;10.03;100.00;100114.25;5074127;28;20056;-50
2023/03/23 07:08:45;;;;;;;42.20;4.43;;;;;;;10.02;100.00;100108.03;5072757;28;20037;-49
2023/03/23 07:11:11;;;;;;;42.20;5.18;;;;;;;10.07;100.00;100091.31;5070819;28;20086;-51
2023/03/23 07:13:36;;;;;;;44.05;4.43;;;;;;;10.03;100.00;100107.03;5070673;28;20075;-49
2023/03/23 07:16:05;;;;;;;48.80;4.10;;;;;;;10.03;100.00;100098.09;5079468;28;20498;-52
2023/03/23 07:18:31;;;;;;;33.65;3.30;;;;;;;10.01;100.00;100119.00;5079567;28;20119;-51
2023/03/23 07:20:56;;;;;;;43.65;4.25;;;;;;;10.02;100.00;100118.78;5070436;28;20107;-50
2023/03/23 07:23:22;;;;;;;48.05;6.68;;;;;;;10.11;100.00;100119.50;5071008;28;20482;-50
2023/03/23 07:25:48;;;;;;;31.60;3.75;;;;;;;10.18;100.00;100124.91;5071106;28;20057;-51
2023/03/23 07:28:14;;;;;;;34.22;3.50;;;;;;;10.16;100.00;100108.94;5071625;28;20031;-50
2023/03/23 07:30:40;;;;;;;34.65;4.97;;;;;;;10.16;100.00;100108.94;5075500;28;20032;-50
2023/03/23 07:33:06;;;;;;;30.05;3.97;;;;;;;10.15;100.00;100107.31;5080551;28;20046;-50
2023/03/23 07:35:32;;;;;;;38.75;3.90;;;;;;;10.39;100.00;100105.19;5089534;28;20269;-50
2023/03/23 07:37:57;;;;;;;32.45;3.60;;;;;;;11.24;100.00;100092.25;5072563;28;20444;-50
2023/03/23 07:40:22;;;;;;;37.47;4.63;;;;;;;11.64;100.00;100090.44;5070340;28;20043;-51
2023/03/23 07:42:52;;;;;;;32.08;3.55;;;;;;;11.69;100.00;100087.09;5069921;28;20112;-50
2023/03/23 07:45:18;;;;;;;38.58;4.72;;;;;;;11.82;100.00;100116.75;5070276;28;20039;-49
2023/03/23 07:47:43;;;;;;;39.05;3.58;;;;;;;11.73;100.00;100096.44;5069072;28;20465;-53
2023/03/23 07:50:09;;;;;;;29.00;3.63;;;;;;;11.72;100.00;100105.56;5069717;28;20051;-50
2023/03/23 07:52:35;;;;;;;41.83;3.78;;;;;;;11.41;100.00;100109.69;5072863;28;20036;-50
2023/03/23 07:55:02;;;;;;;38.97;3.97;;;;;;;11.19;100.00;100114.41;5069826;28;20051;-52
2023/03/23 07:57:28;;;;;;;53.05;5.38;;;;;;;11.12;100.00;100117.09;5069777;28;20024;-49
2023/03/23 07:59:54;;;;;;;40.83;5.35;;;;;;;11.36;100.00;100122.94;5074485;28;20441;-50
2023/03/23 08:02:19;;;;;;;31.08;4.10;;;;;;;11.81;100.00;100128.56;5070153;28;20112;-51
2023/03/23 08:04:45;;;;;;;43.60;3.45;;;;;;;11.75;100.00;100127.53;5070770;28;20498;-50
2023/03/23 08:07:12;;;;;;;33.50;3.88;;;;;;;11.71;100.00;100136.25;5073461;28;20039;-51
2023/03/23 08:09:38;;;;;;;33.97;3.95;;;;;;;12.21;100.00;100136.66;5076646;28;20080;-48
2023/03/23 08:12:04;;;;;;;49.80;5.28;;;;;;;12.62;100.00;100128.25;5076057;28;20551;-50
2023/03/23 08:14:30;;;;;;;37.22;3.67;;;;;;;13.19;100.00;100128.41;5053440;28;20120;-50
2023/03/23 08:16:55;;;;;;;43.80;5.20;;;;;;;13.16;100.00;100131.53;5075091;28;20032;-50
2023/03/23 08:19:22;;;;;;;39.53;3.92;;;;;;;13.35;100.00;100136.06;5090407;28;20028;-51
2023/03/23 08:21:48;;;;;;;48.92;5.22;;;;;;;13.79;100.00;100111.81;5090850;28;20028;-50
2023/03/23 08:48:27;;;;;;;54.78;6.82;;;;;;;14.23;100.00;100145.97;5110233;27;20400;-50
2023/03/23 08:50:53;;;;;;;59.88;6.15;;;;;;;14.07;100.00;100151.94;5100547;28;20054;-50
2023/03/23 08:53:20;;;;;;;50.03;5.82;;;;;;;13.71;100.00;100148.06;5106021;28;20030;-49
2023/03/23 08:55:46;;;;;;;63.38;5.82;;;;;;;13.79;100.00;100145.09;5108438;28;20059;-49
2023/03/23 08:58:11;;;;;;;47.67;4.80;;;;;;;13.96;100.00;100147.25;5108492;27;20727;-53
2023/03/23 09:00:37;;;;;;;74.22;6.05;;;;;;;14.23;100.00;100134.31;5105946;28;20030;-51
2023/03/23 09:03:03;;;;;;;58.72;6.70;;;;;;;14.13;100.00;100145.63;5105731;28;20169;-51
2023/03/23 09:05:28;;;;;;;61.30;6.00;;;;;;;14.09;100.00;100141.72;5107314;28;20024;-49
2023/03/23 09:07:58;;;;;;;54.38;6.35;;;;;;;14.07;100.00;100141.13;5107680;28;20378;-53
2023/03/23 09:10:24;;;;;;;55.28;6.15;;;;;;;13.48;100.00;100153.22;5107319;28;20028;-50
2023/03/23 09:12:49;;;;;;;50.33;6.05;;;;;;;13.14;100.00;100142.59;5107739;28;20047;-50
2023/03/23 09:15:17;;;;;;;52.75;5.53;;;;;;;13.08;100.00;100138.03;5105805;28;20027;-51
2023/03/23 09:17:45;;;;;;;56.75;4.55;;;;;;;13.67;100.00;100146.84;5107226;28;20511;-50
2023/03/23 09:20:12;;;;;;;69.75;5.68;;;;;;;13.42;100.00;100145.97;5107000;28;20485;-50
2023/03/23 09:22:39;;;;;;;63.28;5.30;;;;;;;13.73;100.00;100148.69;5107083;28;20027;-52
2023/03/23 09:25:06;;;;;;;57.08;6.07;;;;;;;14.14;100.00;100150.00;5106860;28;20335;-50
2023/03/23 09:27:32;;;;;;;71.95;5.85;;;;;;;15.29;100.00;100143.06;5107074;28;20031;-50
2023/03/23 09:29:58;;;;;;;55.88;5.35;;;;;;;15.14;100.00;100155.19;5104990;28;20046;-50
2023/03/23 09:32:23;;;;;;;56.72;5.97;;;;;;;15.14;100.00;100152.47;5087727;28;20028;-52
2023/03/23 09:34:49;;;;;;;62.58;6.88;;;;;;;14.59;100.00;100155.22;5086354;28;20043;-49
2023/03/23 09:37:15;;;;;;;58.05;6.57;;;;;;;14.18;100.00;100158.50;5087073;28;20107;-50
2023/03/23 09:39:40;;;;;;;53.47;6.80;;;;;;;14.25;100.00;100165.50;5106716;28;20040;-50
2023/03/23 09:42:31;;;;;;;57.33;6.10;;;;;;;14.42;100.00;100170.34;5106511;28;20093;-49
2023/03/23 09:45:23;;;;;;;53.78;6.07;;;;;;;14.65;100.00;100180.56;5105762;28;20040;-49
2023/03/23 09:48:14;;;;;;;48.58;5.63;;;;;;;14.93;100.00;100170.03;5089715;28;20048;-50
2023/03/23 09:50:42;;;;;;;48.72;5.00;;;;;;;15.24;100.00;100167.34;5057507;28;20511;-51
2023/03/23 09:53:16;;;;;;;47.47;6.38;;;;;;;15.13;100.00;100177.88;5071424;28;20032;-50
2023/03/23 09:55:42;;;;;;;59.28;6.07;;;;;;;15.15;100.00;100174.97;5070967;28;20480;-50
2023/03/23 09:58:31;;;;;;;65.47;5.78;;;;;;;15.08;100.00;100202.13;5072638;28;20048;-49
2023/03/23 10:01:06;;;;;;;62.10;6.60;;;;;;;14.97;100.00;100191.25;5069333;28;20040;-50
2023/03/23 10:03:37;;;;;;;67.43;7.10;;;;;;;14.56;100.00;100180.03;5071946;28;20483;-48
2023/03/23 10:06:02;;;;;;;69.45;6.68;;;;;;;14.43;100.00;100199.09;5070598;28;20113;-52
2023/03/23 10:08:32;;;;;;;65.68;6.05;;;;;;;14.09;100.00;100198.56;5070460;28;20487;-50
2023/03/23 10:11:17;;;;;;;57.05;5.32;;;;;;;14.11;100.00;100199.13;5066902;28;20024;-49
2023/03/23 10:14:01;;;;;;;59.47;7.38;;;;;;;13.79;100.00;100220.81;5058424;28;20037;-51
2023/03/23 10:16:32;;;;;;;69.15;6.75;;;;;;;13.37;100.00;100219.59;5051523;28;20080;-50
2023/03/23 10:19:20;;;;;;;61.53;6.28;;;;;;;13.91;100.00;100225.53;5055961;28;20115;-50
2023/03/23 10:22:01;;;;;;;73.07;7.70;;;;;;;14.03;100.00;100207.53;5069148;28;20024;-52
2023/03/23 10:24:33;;;;;;;61.80;6.38;;;;;;;14.28;100.00;100219.19;5073875;28;20036;-49
2023/03/23 10:27:27;;;;;;;67.97;5.75;;;;;;;14.47;100.00;100195.69;5078434;28;20315;-51
2023/03/23 10:29:58;;;;;;;69.55;7.53;;;;;;;14.41;100.00;100203.91;5070327;28;20021;-53
2023/03/23 10:32:41;;;;;;;45.65;5.90;;;;;;;14.28;100.00;100181.31;5070125;28;20485;-51
2023/03/23 10:35:11;;;;;;;63.95;5.28;;;;;;;14.14;100.00;100192.47;5069366;28;20037;-49
2023/03/23 10:37:40;;;;;;;78.07;7.03;;;;;;;14.33;100.00;100204.19;5068431;28;20024;-48
2023/03/23 10:40:13;;;;;;;69.53;7.88;;;;;;;14.08;100.00;100190.66;5066854;28;20024;-51
2023/03/23 10:42:39;;;;;;;81.70;6.00;;;;;;;14.61;100.00;100211.84;5069002;28;20380;-48
2023/03/23 10:45:29;;;;;;;73.85;7.57;;;;;;;14.71;100.00;100202.13;5065395;28;20050;-50
2023/03/23 10:48:24;;;;;;;78.97;6.78;;;;;;;14.64;100.00;100206.81;5070087;28;20107;-51
2023/03/23 10:50:52;;;;;;;64.40;5.93;;;;;;;14.44;100.00;100198.84;5057917;28;20454;-53
2023/03/23 10:53:21;;;;;;;91.88;8.43;;;;;;;14.06;100.00;100196.31;5068108;28;20024;-50
2023/03/23 10:55:47;;;;;;;66.63;6.90;;;;;;;14.03;100.00;100199.41;5069635;28;20037;-50
2023/03/23 10:58:31;;;;;;;64.95;5.45;;;;;;;14.17;100.00;100211.00;5070021;28;20036;-50
2023/03/23 11:00:57;;;;;;;64.15;6.95;;;;;;;14.25;100.00;100208.81;5066786;28;20047;-51
2023/03/23 11:03:28;;;;;;;57.20;5.20;;;;;;;14.25;100.00;100235.88;5069942;28;20708;-52
2023/03/23 11:05:57;;;;;;;60.42;6.25;;;;;;;14.52;100.00;100208.56;5069733;28;20025;-50
2023/03/23 11:08:26;;;;;;;55.60;5.80;;;;;;;14.41;100.00;100195.78;5069862;28;20037;-49
2023/03/23 11:10:54;;;;;;;64.47;6.00;;;;;;;14.67;100.00;100203.66;5068485;28;20024;-49
2023/03/23 11:13:20;;;;;;;;;;;;;;;14.46;100.00;100214.88;5070060;28;20079;-50
2023/03/23 11:15:47;;;;;;;52.15;5.25;;;;;;;14.57;100.00;100197.94;5070469;28;20290;-50
2023/03/23 11:18:21;;;;;;;60.92;5.72;;;;;;;14.50;100.00;100206.06;5070314;28;20079;-50
2023/03/23 11:20:50;;;;;;;37.92;4.25;;;;;;;14.90;100.00;100194.03;5068365;28;20506;-50
2023/03/23 11:23:26;;;;;;;54.35;5.50;;;;;;;14.77;100.00;100200.44;5070245;28;20075;-52
2023/03/23 11:26:27;;;;;;;38.03;5.32;;;;;;;14.60;100.00;100194.78;5066879;28;20032;-53
2023/03/23 11:28:57;;;;;;;43.63;5.03;;;;;;;14.31;100.00;100190.03;5066225;28;20055;-48
2023/03/23 11:31:27;;;;;;;49.72;4.93;;;;;;;14.31;100.00;100200.88;5068366;28;20125;-52
2023/03/23 11:33:57;;;;;;;48.38;4.55;;;;;;;14.15;100.00;100186.84;5083841;28;20036;-50
2023/03/23 11:36:29;;;;;;;56.08;5.72;;;;;;;14.12;100.00;100184.56;5085288;28;20012;-49
2023/03/23 11:38:58;;;;;;;37.65;4.75;;;;;;;13.92;100.00;100187.44;5069408;28;20039;-51
2023/03/23 11:41:25;;;;;;;44.53;4.95;;;;;;;13.65;100.00;100192.22;5074135;28;20413;-52
2023/03/23 11:43:52;;;;;;;43.83;4.03;;;;;;;13.73;100.00;100194.66;5088969;28;20081;-53
2023/03/23 11:46:30;;;;;;;53.05;4.93;;;;;;;13.50;100.00;100197.09;5078261;28;20290;-51